createdAt,value
2018-01-22T00:01:18.600Z,50.60
2018-01-22T00:03:48.291Z,51.00
2018-01-22T00:06:15.907Z,50.60
2018-01-22T00:08:43.466Z,50.60
2018-01-22T00:11:11.059Z,50.60
2018-01-22T00:13:38.610Z,50.60
2018-01-22T00:16:06.200Z,50.60
2018-01-22T00:18:34.529Z,50.60
2018-01-22T00:21:02.106Z,50.50
2018-01-22T00:23:29.675Z,50.50
2018-01-22T00:25:57.397Z,50.50
2018-01-22T00:28:25.147Z,50.60
2018-01-22T00:30:52.746Z,50.70
2018-01-22T00:33:20.318Z,51.00
2018-01-22T00:35:47.995Z,50.60
2018-01-22T00:38:15.527Z,50.50
2018-01-22T00:40:43.109Z,50.50
2018-01-22T00:43:11.437Z,50.60
2018-01-22T00:45:39.010Z,50.50
2018-01-22T00:48:06.565Z,50.60
2018-01-22T00:50:34.159Z,50.60
2018-01-22T00:53:01.792Z,50.60
2018-01-22T00:55:29.426Z,50.50
2018-01-22T00:57:56.980Z,50.50
2018-01-22T01:00:24.550Z,50.50
2018-01-22T01:02:52.208Z,50.50
2018-01-22T01:05:19.782Z,50.50
2018-01-22T01:07:47.346Z,50.50
2018-01-22T01:10:14.926Z,50.50
2018-01-22T01:12:43.251Z,50.60
2018-01-22T01:15:10.908Z,50.40
2018-01-22T01:17:38.496Z,50.50
2018-01-22T01:20:06.062Z,50.50
2018-01-22T01:22:34.197Z,50.50
2018-01-22T01:25:01.771Z,50.40
2018-01-22T01:27:29.335Z,50.50
2018-01-22T01:29:56.914Z,50.50
2018-01-22T01:32:24.642Z,50.50
2018-01-22T01:34:52.199Z,50.60
2018-01-22T01:37:19.757Z,50.60
2018-01-22T01:39:47.318Z,50.60
2018-01-22T01:42:14.879Z,50.50
2018-01-22T01:44:42.434Z,50.50
2018-01-22T01:47:10.006Z,50.50
2018-01-22T01:49:37.550Z,50.50
2018-01-22T01:52:05.126Z,50.50
2018-01-22T01:54:32.796Z,50.50
2018-01-22T01:57:00.351Z,50.50
2018-01-22T01:59:27.919Z,50.50
2018-01-22T02:01:55.513Z,50.60
2018-01-22T02:04:23.074Z,50.50
2018-01-22T02:06:50.727Z,50.50
2018-01-22T02:09:18.325Z,50.40
2018-01-22T02:11:46.080Z,50.40
2018-01-22T02:14:13.729Z,50.40
2018-01-22T02:16:41.302Z,50.40
2018-01-22T02:19:08.854Z,50.40
2018-01-22T02:21:36.427Z,50.40
2018-01-22T02:24:03.990Z,50.40
2018-01-22T02:26:33.086Z,50.40
2018-01-22T02:29:00.655Z,50.40
2018-01-22T02:31:28.244Z,50.40
2018-01-22T02:33:55.810Z,50.40
2018-01-22T02:36:23.475Z,50.40
2018-01-22T02:38:51.026Z,50.40
2018-01-22T02:41:18.599Z,50.40
2018-01-22T02:43:46.156Z,50.40
2018-01-22T02:46:13.750Z,50.40
2018-01-22T02:48:41.330Z,50.40
2018-01-22T02:51:08.900Z,50.40
2018-01-22T02:53:37.446Z,50.40
2018-01-22T02:56:05.021Z,50.30
2018-01-22T02:58:32.654Z,50.40
2018-01-22T03:01:00.246Z,50.10
2018-01-22T03:03:28.564Z,50.40
2018-01-22T03:05:56.171Z,50.30
2018-01-22T03:08:23.731Z,50.30
2018-01-22T03:10:51.315Z,50.40
2018-01-22T03:13:18.879Z,50.30
2018-01-22T03:15:46.478Z,50.40
2018-01-22T03:18:14.045Z,50.30
2018-01-22T03:20:41.602Z,50.30
2018-01-22T03:23:09.155Z,50.20
2018-01-22T03:25:36.706Z,50.20
2018-01-22T03:28:04.275Z,50.20
2018-01-22T03:30:31.918Z,50.20
2018-01-22T03:33:00.467Z,50.20
2018-01-22T03:35:28.026Z,50.20
2018-01-22T03:37:55.588Z,50.20
2018-01-22T03:40:23.262Z,50.20
2018-01-22T03:42:50.806Z,50.20
2018-01-22T03:45:18.361Z,50.20
2018-01-22T03:47:45.918Z,50.20
2018-01-22T03:50:13.478Z,50.20
2018-01-22T03:52:41.039Z,50.20
2018-01-22T03:55:08.590Z,50.20
2018-01-22T03:57:36.150Z,50.20
2018-01-22T04:00:03.716Z,50.20
2018-01-22T04:02:31.294Z,50.10
2018-01-22T04:04:59.047Z,50.10
2018-01-22T04:07:26.639Z,50.10
2018-01-22T04:09:54.274Z,50.10
2018-01-22T04:12:21.931Z,50.10
2018-01-22T04:14:49.591Z,50.10
2018-01-22T04:17:17.179Z,50.10
2018-01-22T04:19:44.738Z,50.10
2018-01-22T04:22:12.375Z,50.10
2018-01-22T04:24:39.930Z,50.10
2018-01-22T04:27:07.577Z,50.10
2018-01-22T04:29:35.195Z,50.10
2018-01-22T04:32:03.535Z,50.10
2018-01-22T04:34:31.102Z,50.10
2018-01-22T04:36:58.689Z,50.10
2018-01-22T04:39:26.244Z,50.10
2018-01-22T04:41:54.594Z,50.10
2018-01-22T04:44:22.228Z,50.00
2018-01-22T04:46:49.889Z,50.00
2018-01-22T04:49:17.445Z,50.00
2018-01-22T04:51:45.031Z,50.10
2018-01-22T04:54:12.766Z,50.10
2018-01-22T04:56:40.343Z,50.10
2018-01-22T04:59:07.901Z,50.10
2018-01-22T05:01:35.478Z,50.00
2018-01-22T05:04:03.053Z,50.00
2018-01-22T05:06:31.478Z,50.00
2018-01-22T05:08:59.129Z,50.00
2018-01-22T05:11:26.698Z,50.00
2018-01-22T05:13:54.463Z,50.00
2018-01-22T05:16:22.091Z,50.00
2018-01-22T05:18:49.683Z,50.00
2018-01-22T05:21:17.335Z,50.00
2018-01-22T05:23:44.998Z,50.00
2018-01-22T05:26:12.558Z,50.00
2018-01-22T05:28:40.215Z,50.00
2018-01-22T05:31:07.773Z,50.00
2018-01-22T05:33:35.330Z,50.00
2018-01-22T05:36:02.882Z,50.00
2018-01-22T05:38:30.442Z,50.00
2018-01-22T05:40:58.012Z,50.00
2018-01-22T05:43:25.566Z,50.00
2018-01-22T05:45:53.126Z,50.00
2018-01-22T05:48:20.678Z,50.00
2018-01-22T05:50:48.327Z,50.00
2018-01-22T05:53:15.882Z,50.00
2018-01-22T05:55:43.467Z,50.00
2018-01-22T05:58:11.014Z,49.90
2018-01-22T06:00:38.563Z,50.00
2018-01-22T06:03:06.115Z,50.00
2018-01-22T06:05:33.790Z,50.00
2018-01-22T06:08:01.342Z,49.90
2018-01-22T06:10:28.902Z,49.90
2018-01-22T06:12:56.475Z,49.90
2018-01-22T06:15:24.038Z,49.80
2018-01-22T06:17:51.627Z,49.80
2018-01-22T06:20:19.234Z,49.80
2018-01-22T06:22:46.815Z,49.90
2018-01-22T06:25:14.370Z,49.80
2018-01-22T06:27:41.951Z,49.80
2018-01-22T06:30:09.670Z,49.80
2018-01-22T06:32:37.277Z,49.80
2018-01-22T06:35:05.598Z,49.90
2018-01-22T06:37:33.267Z,49.80
2018-01-22T06:40:00.818Z,49.80
2018-01-22T06:42:28.398Z,49.80
2018-01-22T06:44:56.047Z,49.80
2018-01-22T06:47:23.635Z,49.80
2018-01-22T06:49:51.266Z,49.80
2018-01-22T06:52:19.303Z,49.80
2018-01-22T06:54:46.855Z,49.80
2018-01-22T06:57:14.426Z,49.80
2018-01-22T06:59:42.012Z,49.80
2018-01-22T07:02:09.587Z,49.80
2018-01-22T07:04:37.914Z,49.80
2018-01-22T07:07:05.490Z,49.80
2018-01-22T07:09:33.254Z,49.80
2018-01-22T07:12:00.836Z,49.80
2018-01-22T07:14:29.171Z,49.90
2018-01-22T07:16:56.758Z,49.80
2018-01-22T07:19:24.409Z,49.80
2018-01-22T07:21:51.963Z,49.80
2018-01-22T07:24:20.850Z,49.80
2018-01-22T07:26:48.403Z,49.80
2018-01-22T07:29:15.958Z,49.70
2018-01-22T07:31:43.504Z,49.70
2018-01-22T07:34:11.066Z,49.70
2018-01-22T07:36:38.622Z,49.60
2018-01-22T07:39:06.187Z,49.60
2018-01-22T07:41:33.755Z,49.60
2018-01-22T07:44:01.320Z,49.50
2018-01-22T07:46:28.886Z,49.50
2018-01-22T07:48:56.456Z,49.50
2018-01-22T07:51:24.018Z,49.40
2018-01-22T07:53:51.574Z,49.40
2018-01-22T07:56:19.135Z,49.30
2018-01-22T07:58:46.700Z,49.30
2018-01-22T08:01:14.334Z,49.40
2018-01-22T08:03:42.006Z,49.40
2018-01-22T08:06:09.575Z,49.30
2018-01-22T08:08:38.657Z,49.50
2018-01-22T08:11:06.232Z,49.30
2018-01-22T08:13:33.803Z,49.30
2018-01-22T08:16:02.131Z,49.50
2018-01-22T08:18:29.692Z,49.30
2018-01-22T08:20:57.268Z,49.30
2018-01-22T08:23:24.873Z,49.40
2018-01-22T08:25:52.432Z,49.30
2018-01-22T08:28:20.011Z,49.90
2018-01-22T08:30:47.636Z,49.40
2018-01-22T08:33:15.227Z,49.40
2018-01-22T08:35:42.907Z,49.40
2018-01-22T08:38:10.532Z,49.40
2018-01-22T08:40:38.120Z,49.40
2018-01-22T08:43:05.907Z,49.40
2018-01-22T08:45:33.495Z,50.00
2018-01-22T08:48:01.846Z,49.50
2018-01-22T08:50:29.406Z,49.40
2018-01-22T08:52:56.996Z,49.50
2018-01-22T08:55:24.599Z,49.40
2018-01-22T08:57:52.183Z,49.40
2018-01-22T09:00:19.759Z,50.00
2018-01-22T09:02:47.416Z,49.40
2018-01-22T09:05:15.749Z,49.50
2018-01-22T09:07:43.344Z,49.40
2018-01-22T09:10:10.987Z,49.50
2018-01-22T09:12:40.168Z,49.50
2018-01-22T09:15:07.815Z,49.30
2018-01-22T09:17:35.391Z,49.50
2018-01-22T09:20:02.963Z,49.50
2018-01-22T09:22:30.591Z,49.50
2018-01-22T09:24:58.166Z,49.50
2018-01-22T09:27:25.732Z,49.40
2018-01-22T09:29:53.305Z,49.40
2018-01-22T09:32:20.864Z,49.40
2018-01-22T09:34:48.486Z,49.50
2018-01-22T09:37:16.043Z,49.50
2018-01-22T09:39:43.604Z,49.50
2018-01-22T09:42:11.184Z,49.50
2018-01-22T09:44:38.759Z,49.40
2018-01-22T09:47:07.093Z,49.60
2018-01-22T09:49:34.653Z,50.00
2018-01-22T09:52:02.257Z,49.40
2018-01-22T09:54:30.616Z,49.40
2018-01-22T09:56:58.195Z,49.30
2018-01-22T09:59:25.855Z,49.30
2018-01-22T10:01:53.477Z,49.30
2018-01-22T10:04:21.286Z,49.30
2018-01-22T10:06:49.023Z,49.30
2018-01-22T10:09:16.595Z,49.40
2018-01-22T10:11:44.932Z,49.50
2018-01-22T10:14:13.601Z,49.30
2018-01-22T10:16:41.183Z,49.30
2018-01-22T10:19:08.896Z,49.30
2018-01-22T10:21:36.465Z,49.30
2018-01-22T10:24:04.042Z,49.60
2018-01-22T10:26:31.853Z,49.80
2018-01-22T10:29:00.208Z,50.00
2018-01-22T10:31:28.047Z,49.90
2018-01-22T10:33:55.655Z,49.80
2018-01-22T10:36:24.024Z,49.70
2018-01-22T10:38:52.362Z,49.60
2018-01-22T10:41:19.931Z,49.40
2018-01-22T10:43:47.509Z,49.40
2018-01-22T10:46:15.081Z,49.40
2018-01-22T10:48:42.776Z,49.40
2018-01-22T10:51:10.366Z,49.90
2018-01-22T10:53:37.966Z,49.30
2018-01-22T10:56:06.375Z,49.40
2018-01-22T10:58:34.016Z,49.20
2018-01-22T11:01:01.591Z,49.20
2018-01-22T11:03:29.866Z,49.30
2018-01-22T11:05:59.135Z,49.30
2018-01-22T11:08:27.522Z,49.50
2018-01-22T11:10:55.100Z,49.20
2018-01-22T11:13:22.710Z,49.20
2018-01-22T11:15:56.709Z,49.30
2018-01-22T11:18:24.334Z,49.10
2018-01-22T11:20:51.904Z,49.20
2018-01-22T11:23:19.495Z,49.20
2018-01-22T11:25:47.880Z,49.30
2018-01-22T11:28:16.824Z,49.20
2018-01-22T11:30:44.420Z,49.20
2018-01-22T11:33:12.827Z,49.30
2018-01-22T11:35:40.383Z,49.20
2018-01-22T11:38:08.186Z,49.20
2018-01-22T11:40:35.752Z,49.20
2018-01-22T11:43:03.386Z,49.20
2018-01-22T11:45:31.006Z,49.10
2018-01-22T11:47:58.684Z,49.20
2018-01-22T11:50:26.247Z,49.10
2018-01-22T11:52:53.828Z,49.20
2018-01-22T11:55:21.386Z,49.10
2018-01-22T11:57:48.960Z,49.10
2018-01-22T12:00:16.551Z,49.20
2018-01-22T12:02:44.129Z,49.10
2018-01-22T12:05:12.453Z,49.20
2018-01-22T12:07:40.021Z,49.10
2018-01-22T12:10:07.587Z,49.10
2018-01-22T12:12:35.159Z,49.20
2018-01-22T12:15:03.522Z,49.30
2018-01-22T12:17:31.858Z,49.40
2018-01-22T12:19:59.475Z,49.10
2018-01-22T12:22:27.039Z,49.20
2018-01-22T12:24:54.642Z,49.80
2018-01-22T12:27:22.312Z,49.20
2018-01-22T12:29:49.911Z,49.20
2018-01-22T12:32:17.762Z,49.20
2018-01-22T12:34:45.322Z,49.20
2018-01-22T12:37:12.896Z,49.20
2018-01-22T12:39:41.221Z,49.20
2018-01-22T12:42:08.774Z,49.20
2018-01-22T12:44:36.330Z,49.80
2018-01-22T12:47:03.917Z,49.10
2018-01-22T12:49:31.488Z,49.20
2018-01-22T12:51:59.059Z,49.20
2018-01-22T12:54:27.408Z,49.30
2018-01-22T12:56:54.984Z,49.10
2018-01-22T12:59:22.688Z,49.20
2018-01-22T13:01:50.264Z,49.20
2018-01-22T13:04:17.830Z,49.20
2018-01-22T13:06:45.400Z,49.20
2018-01-22T13:09:12.999Z,49.10
2018-01-22T13:11:40.715Z,49.20
2018-01-22T13:14:08.367Z,49.10
2018-01-22T13:16:35.931Z,49.10
2018-01-22T13:19:03.551Z,49.20
2018-01-22T13:21:31.123Z,49.20
2018-01-22T13:23:58.701Z,49.30
2018-01-22T13:26:26.261Z,49.90
2018-01-22T13:28:53.846Z,49.20
2018-01-22T13:31:21.406Z,49.20
2018-01-22T13:33:48.987Z,49.20
2018-01-22T13:36:17.327Z,49.20
2018-01-22T13:38:44.901Z,49.20
2018-01-22T13:41:15.039Z,49.20
2018-01-22T13:43:42.624Z,49.10
2018-01-22T13:46:10.246Z,49.20
2018-01-22T13:48:38.692Z,49.30
2018-01-22T13:51:06.267Z,49.20
2018-01-22T13:53:33.839Z,49.20
2018-01-22T13:56:02.181Z,49.20
2018-01-22T13:58:29.768Z,49.20
2018-01-22T14:00:57.335Z,49.20
2018-01-22T14:03:24.904Z,49.10
2018-01-22T14:05:52.506Z,49.10
2018-01-22T14:08:20.193Z,49.20
2018-01-22T14:10:47.779Z,49.20
2018-01-22T14:13:15.342Z,49.20
2018-01-22T14:15:43.063Z,49.30
2018-01-22T14:18:12.379Z,49.40
2018-01-22T14:20:40.731Z,49.30
2018-01-22T14:23:08.287Z,49.20
2018-01-22T14:25:35.851Z,49.20
2018-01-22T14:28:03.599Z,49.20
2018-01-22T14:30:31.168Z,49.20
2018-01-22T14:32:58.731Z,49.20
2018-01-22T14:35:26.299Z,49.20
2018-01-22T14:37:54.035Z,49.10
2018-01-22T14:40:21.615Z,49.10
2018-01-22T14:42:49.196Z,49.20
2018-01-22T14:45:16.865Z,49.20
2018-01-22T14:47:44.468Z,49.20
2018-01-22T14:50:12.030Z,49.20
2018-01-22T14:52:39.603Z,49.20
2018-01-22T14:55:07.251Z,49.20
2018-01-22T14:57:34.814Z,49.20
2018-01-22T15:00:02.384Z,49.20
2018-01-22T15:02:29.951Z,49.20
2018-01-22T15:04:57.519Z,49.20
2018-01-22T15:07:25.855Z,49.30
2018-01-22T15:09:53.439Z,49.20
2018-01-22T15:12:21.018Z,49.10
2018-01-22T15:14:49.403Z,49.30
2018-01-22T15:17:16.960Z,49.20
2018-01-22T15:19:44.548Z,49.20
2018-01-22T15:22:12.110Z,49.20
2018-01-22T15:24:39.787Z,49.20
2018-01-22T15:27:07.353Z,49.20
2018-01-22T15:29:34.956Z,49.20
2018-01-22T15:32:02.517Z,49.20
2018-01-22T15:34:30.111Z,49.20
2018-01-22T15:36:57.672Z,49.20
2018-01-22T15:39:25.256Z,49.20
2018-01-22T15:41:52.821Z,49.20
2018-01-22T15:44:20.451Z,49.20
2018-01-22T15:46:48.032Z,49.20
2018-01-22T15:49:15.600Z,49.20
2018-01-22T15:51:43.948Z,49.30
2018-01-22T15:54:11.550Z,49.20
2018-01-22T15:56:39.899Z,49.30
2018-01-22T15:59:07.661Z,49.10
2018-01-22T16:01:35.227Z,49.20
2018-01-22T16:04:02.800Z,49.20
2018-01-22T16:06:31.131Z,49.30
2018-01-22T16:08:58.691Z,49.00
2018-01-22T16:11:26.254Z,49.20
2018-01-22T16:13:53.818Z,49.20
2018-01-22T16:16:21.387Z,49.20
2018-01-22T16:18:49.442Z,49.20
2018-01-22T16:21:17.075Z,49.10
2018-01-22T16:23:44.631Z,49.20
2018-01-22T16:26:12.197Z,49.20
2018-01-22T16:28:39.756Z,49.10
2018-01-22T16:31:07.334Z,49.10
2018-01-22T16:33:34.971Z,49.20
2018-01-22T16:36:02.535Z,49.20
2018-01-22T16:38:30.095Z,49.20
2018-01-22T16:40:57.659Z,49.30
2018-01-22T16:43:25.219Z,49.20
2018-01-22T16:45:52.775Z,49.20
2018-01-22T16:48:20.414Z,49.20
2018-01-22T16:50:47.970Z,49.20
2018-01-22T16:53:15.534Z,49.20
2018-01-22T16:55:43.091Z,49.20
2018-01-22T16:58:10.646Z,49.20
2018-01-22T17:00:38.211Z,49.20
2018-01-22T17:03:05.775Z,49.20
2018-01-22T17:05:33.336Z,49.20
2018-01-22T17:08:00.895Z,49.20
2018-01-22T17:10:28.464Z,49.20
2018-01-22T17:12:57.541Z,49.30
2018-01-22T17:15:25.103Z,49.10
2018-01-22T17:17:52.748Z,49.20
2018-01-22T17:20:20.308Z,49.20
2018-01-22T17:22:47.863Z,49.10
2018-01-22T17:25:15.415Z,49.20
2018-01-22T17:27:42.995Z,49.20
2018-01-22T17:30:10.560Z,49.10
2018-01-22T17:32:38.128Z,49.20
2018-01-22T17:35:07.225Z,49.30
2018-01-22T17:37:34.783Z,49.20
2018-01-22T17:40:02.375Z,49.10
2018-01-22T17:42:29.967Z,49.10
2018-01-22T17:44:57.523Z,49.10
2018-01-22T17:47:25.196Z,49.10
2018-01-22T17:49:52.772Z,49.10
2018-01-22T17:52:20.339Z,49.10
2018-01-22T17:54:48.778Z,49.30
2018-01-22T17:57:16.340Z,49.20
2018-01-22T17:59:43.894Z,49.20
2018-01-22T18:02:11.460Z,49.10
2018-01-22T18:04:39.024Z,49.10
2018-01-22T18:07:06.600Z,49.20
2018-01-22T18:09:34.174Z,49.20
2018-01-22T18:12:02.519Z,49.30
2018-01-22T18:14:30.075Z,49.20
2018-01-22T18:16:57.630Z,49.10
2018-01-22T18:19:25.288Z,49.10
2018-01-22T18:21:52.857Z,49.10
2018-01-22T18:24:20.427Z,49.20
2018-01-22T18:26:47.985Z,49.10
2018-01-22T18:29:15.552Z,49.20
2018-01-22T18:31:43.884Z,49.30
2018-01-22T18:34:11.543Z,49.10
2018-01-22T18:36:39.144Z,49.10
2018-01-22T18:39:06.709Z,49.20
2018-01-22T18:41:35.120Z,49.30
2018-01-22T18:44:02.675Z,49.20
2018-01-22T18:46:30.230Z,49.10
2018-01-22T18:48:57.826Z,49.10
2018-01-22T18:51:25.397Z,49.20
2018-01-22T18:53:52.968Z,49.10
2018-01-22T18:56:20.590Z,49.00
2018-01-22T18:58:48.162Z,49.00
2018-01-22T19:01:15.726Z,49.20
2018-01-22T19:03:43.283Z,49.10
2018-01-22T19:06:10.919Z,49.20
2018-01-22T19:08:38.584Z,49.20
2018-01-22T19:11:06.148Z,49.10
2018-01-22T19:13:33.743Z,49.20
2018-01-22T19:16:01.295Z,49.20
2018-01-22T19:18:30.371Z,49.30
2018-01-22T19:20:57.932Z,49.20
2018-01-22T19:23:25.572Z,49.10
2018-01-22T19:25:53.179Z,49.10
2018-01-22T19:28:21.499Z,49.30
2018-01-22T19:30:49.083Z,49.20
2018-01-22T19:33:16.643Z,49.30
2018-01-22T19:35:44.231Z,49.10
2018-01-22T19:38:11.786Z,49.10
2018-01-22T19:40:40.115Z,49.30
2018-01-22T19:43:07.784Z,49.30
2018-01-22T19:45:36.213Z,49.20
2018-01-22T19:48:04.534Z,49.10
2018-01-22T19:50:32.098Z,49.00
2018-01-22T19:52:59.749Z,49.20
2018-01-22T19:55:27.320Z,49.10
2018-01-22T19:57:54.881Z,49.00
2018-01-22T20:00:22.515Z,49.10
2018-01-22T20:02:50.074Z,49.20
2018-01-22T20:05:17.631Z,49.10
2018-01-22T20:07:45.212Z,49.10
2018-01-22T20:10:12.772Z,49.20
2018-01-22T20:12:40.330Z,49.10
2018-01-22T20:15:07.894Z,49.20
2018-01-22T20:17:35.451Z,49.20
2018-01-22T20:20:03.017Z,49.10
2018-01-22T20:22:31.346Z,49.30
2018-01-22T20:24:58.916Z,49.10
2018-01-22T20:27:26.475Z,49.00
2018-01-22T20:29:54.043Z,49.10
2018-01-22T20:32:21.692Z,49.00
2018-01-22T20:34:49.248Z,49.10
2018-01-22T20:37:16.812Z,49.10
2018-01-22T20:39:44.482Z,49.10
2018-01-22T20:42:12.131Z,49.10
2018-01-22T20:44:39.788Z,49.10
2018-01-22T20:47:07.352Z,49.20
2018-01-22T20:49:34.937Z,49.10
2018-01-22T20:52:02.496Z,49.20
2018-01-22T20:54:30.134Z,49.20
2018-01-22T20:56:57.692Z,49.10
2018-01-22T20:59:25.256Z,49.10
2018-01-22T21:01:52.896Z,49.20
2018-01-22T21:04:20.454Z,49.10
2018-01-22T21:06:48.024Z,49.10
2018-01-22T21:09:15.679Z,49.20
2018-01-22T21:11:43.340Z,49.20
2018-01-22T21:14:10.905Z,49.20
2018-01-22T21:16:38.555Z,49.10
2018-01-22T21:19:06.119Z,49.20
2018-01-22T21:21:33.679Z,49.20
2018-01-22T21:24:01.245Z,49.20
2018-01-22T21:26:28.834Z,49.00
2018-01-22T21:28:57.164Z,49.20
2018-01-22T21:31:24.738Z,49.00
2018-01-22T21:33:52.297Z,49.00
2018-01-22T21:36:19.856Z,49.30
2018-01-22T21:38:47.419Z,49.20
2018-01-22T21:41:14.987Z,49.20
2018-01-22T21:43:42.547Z,49.10
2018-01-22T21:46:10.876Z,49.80
2018-01-22T21:48:38.444Z,49.10
2018-01-22T21:51:06.003Z,49.10
2018-01-22T21:53:33.563Z,49.00
2018-01-22T21:56:01.120Z,49.10
2018-01-22T21:58:28.771Z,49.10
2018-01-22T22:00:56.330Z,49.00
2018-01-22T22:03:23.991Z,49.00
2018-01-22T22:05:51.654Z,49.10
2018-01-22T22:08:19.260Z,49.10
2018-01-22T22:10:47.586Z,49.30
2018-01-22T22:13:15.161Z,49.10
2018-01-22T22:15:42.723Z,49.10
2018-01-22T22:18:11.794Z,49.10
2018-01-22T22:20:39.455Z,49.00
2018-01-22T22:23:07.007Z,49.10
2018-01-22T22:25:34.586Z,49.10
2018-01-22T22:28:02.152Z,49.10
2018-01-22T22:30:29.807Z,49.70
2018-01-22T22:32:57.459Z,49.10
2018-01-22T22:35:25.028Z,49.10
2018-01-22T22:37:52.671Z,49.00
2018-01-22T22:40:20.251Z,49.00
2018-01-22T22:42:47.888Z,49.10
2018-01-22T22:45:15.443Z,49.10
2018-01-22T22:47:43.099Z,49.10
2018-01-22T22:50:10.650Z,49.10
2018-01-22T22:52:38.314Z,49.10
2018-01-22T22:55:05.880Z,49.00
2018-01-22T22:57:33.441Z,49.00
2018-01-22T23:00:01.207Z,49.10
2018-01-22T23:02:28.791Z,49.10
2018-01-22T23:04:56.410Z,49.10
2018-01-22T23:07:24.024Z,48.60
2018-01-22T23:09:52.451Z,49.30
2018-01-22T23:12:20.012Z,49.00
2018-01-22T23:14:47.619Z,49.10
2018-01-22T23:17:15.170Z,49.10
2018-01-22T23:19:43.504Z,49.20
2018-01-22T23:22:11.167Z,49.10
2018-01-22T23:24:38.732Z,49.10
2018-01-22T23:27:06.390Z,49.70
2018-01-22T23:29:34.039Z,49.10
2018-01-22T23:32:01.623Z,49.00
2018-01-22T23:34:29.303Z,49.10
2018-01-22T23:36:57.633Z,49.20
2018-01-22T23:39:25.192Z,49.00
2018-01-22T23:41:52.757Z,49.00
2018-01-22T23:44:20.317Z,49.00
2018-01-22T23:46:47.880Z,49.70
2018-01-22T23:49:15.442Z,49.10
2018-01-22T23:51:43.008Z,49.10
2018-01-22T23:54:10.640Z,49.10
2018-01-22T23:56:38.303Z,49.10
2018-01-22T23:59:05.972Z,49.10
